Time;durP1;ratioP1;P1;durP2;ratioP2;P2;SDS_P1;SDS_P2;PMS_P1;PMS_P2;Temp;Humidity;BMP_temperature;BMP_pressure;BME280_temperature;BME280_humidity;BME280_pressure;Samples;Min_cycle;Max_cycle;Signal;HPM_P1;HPM_P2
2023/12/12 00:01:43;;;;;;;34.13;6.68;;;9.80;99.90;;;;;;4952433;28;89696;-75
2023/12/12 00:04:08;;;;;;;33.60;5.18;;;9.80;99.90;;;;;;4951903;28;91546;-74
2023/12/12 00:06:34;;;;;;;34.05;5.05;;;9.80;99.90;;;;;;4951475;28;89821;-75
2023/12/12 00:09:00;;;;;;;27.85;5.82;;;9.80;99.90;;;;;;4969403;28;88365;-75
2023/12/12 00:11:25;;;;;;;33.28;6.53;;;9.80;99.90;;;;;;4952834;28;90374;-75
2023/12/12 00:13:51;;;;;;;34.47;5.70;;;9.80;99.90;;;;;;4953708;28;91164;-75
2023/12/12 00:16:17;;;;;;;29.75;5.45;;;9.80;99.90;;;;;;4970336;28;88045;-75
2023/12/12 00:18:42;;;;;;;28.70;4.45;;;9.80;99.90;;;;;;4970576;28;87561;-74
2023/12/12 00:21:08;;;;;;;25.60;5.05;;;9.70;99.90;;;;;;4969853;28;87875;-75
2023/12/12 00:23:34;;;;;;;26.13;4.40;;;9.70;99.90;;;;;;4968356;28;89522;-75
2023/12/12 00:25:59;;;;;;;27.52;3.72;;;9.70;99.90;;;;;;4953231;28;91380;-75
2023/12/12 00:28:28;;;;;;;24.23;4.72;;;9.60;99.90;;;;;;4952834;28;87508;-75
2023/12/12 00:30:53;;;;;;;24.50;4.57;;;9.60;99.90;;;;;;4970084;28;87742;-75
2023/12/12 00:33:19;;;;;;;31.13;5.13;;;9.60;99.90;;;;;;4953413;28;93106;-75
2023/12/12 00:35:45;;;;;;;21.58;4.35;;;9.50;99.90;;;;;;4952922;28;92045;-76
2023/12/12 00:38:10;;;;;;;28.17;4.88;;;9.50;99.90;;;;;;4952342;28;87551;-75
2023/12/12 00:40:36;;;;;;;27.55;4.43;;;9.40;99.90;;;;;;4969988;28;88286;-75
2023/12/12 00:43:02;;;;;;;36.53;5.80;;;9.30;99.90;;;;;;4968665;28;87962;-74
2023/12/12 00:45:28;;;;;;;37.25;4.43;;;9.30;99.90;;;;;;4950229;28;91196;-75
2023/12/12 00:47:53;;;;;;;30.27;4.22;;;9.30;99.90;;;;;;4952405;28;87694;-75
2023/12/12 00:50:19;;;;;;;29.42;4.53;;;9.30;99.90;;;;;;4969645;28;86879;-75
2023/12/12 00:52:46;;;;;;;30.42;4.95;;;9.20;99.90;;;;;;4952942;28;89239;-75
2023/12/12 00:55:12;;;;;;;25.63;4.45;;;9.20;99.90;;;;;;4970855;28;87922;-75
2023/12/12 00:57:37;;;;;;;22.75;4.90;;;9.10;99.90;;;;;;4951900;28;89188;-75
2023/12/12 01:00:03;;;;;;;21.73;3.47;;;9.10;99.90;;;;;;4952769;28;89452;-75
2023/12/12 01:02:29;;;;;;;19.85;3.95;;;9.00;99.90;;;;;;4969963;28;87741;-76
2023/12/12 01:04:55;;;;;;;27.35;4.70;;;9.00;99.90;;;;;;4951358;28;91221;-75
2023/12/12 01:07:20;;;;;;;21.02;3.88;;;9.00;99.90;;;;;;4953281;28;87416;-75
2023/12/12 01:09:46;;;;;;;27.60;4.22;;;9.00;99.90;;;;;;4952830;28;89993;-76
2023/12/12 01:12:12;;;;;;;27.98;5.00;;;9.00;99.90;;;;;;4952819;28;91257;-75
2023/12/12 01:14:38;;;;;;;33.03;5.63;;;9.00;99.90;;;;;;4970583;28;88040;-75
2023/12/12 01:17:04;;;;;;;27.95;4.82;;;9.00;99.90;;;;;;4969694;28;88112;-75
2023/12/12 01:19:30;;;;;;;34.55;4.75;;;9.00;99.90;;;;;;4952055;28;89780;-75
2023/12/12 01:21:58;;;;;;;21.50;4.93;;;9.00;99.90;;;;;;4952117;28;92522;-75
2023/12/12 01:24:23;;;;;;;38.28;5.05;;;9.10;99.90;;;;;;4954015;28;92336;-75
2023/12/12 01:26:49;;;;;;;39.40;5.22;;;9.10;99.90;;;;;;4952331;28;87843;-75
2023/12/12 01:29:16;;;;;;;31.35;5.25;;;9.10;99.90;;;;;;4952142;28;90821;-75
2023/12/12 01:31:43;;;;;;;36.53;5.03;;;9.20;99.90;;;;;;4968975;28;88197;-75
2023/12/12 01:34:09;;;;;;;32.38;4.85;;;9.20;99.90;;;;;;4952295;28;91430;-75
2023/12/12 01:36:35;;;;;;;33.08;5.20;;;9.20;99.90;;;;;;4951684;28;87152;-75
2023/12/12 01:39:01;;;;;;;31.70;6.65;;;9.20;99.90;;;;;;4969910;28;86883;-75
2023/12/12 01:41:26;;;;;;;34.35;4.80;;;9.30;99.90;;;;;;4952232;28;91447;-75
2023/12/12 01:43:52;;;;;;;31.65;4.25;;;9.20;99.90;;;;;;4969242;28;88070;-75
2023/12/12 01:46:19;;;;;;;32.67;5.90;;;9.20;99.90;;;;;;4951645;28;88299;-75
2023/12/12 01:48:46;;;;;;;30.15;4.90;;;9.30;99.90;;;;;;4950115;28;92171;-75
2023/12/12 01:51:13;;;;;;;30.23;4.55;;;9.40;99.90;;;;;;4950907;28;91290;-75
2023/12/12 01:53:47;;;;;;;29.75;5.45;;;9.50;99.90;;;;;;4951891;28;91277;-74
2023/12/12 01:56:14;;;;;;;25.92;4.57;;;9.60;99.90;;;;;;4969098;28;87756;-75
2023/12/12 01:58:43;;;;;;;26.92;4.90;;;9.60;99.90;;;;;;4951560;28;89258;-75
2023/12/12 02:01:10;;;;;;;38.50;4.45;;;9.60;99.90;;;;;;4951292;28;91591;-74
2023/12/12 02:03:37;;;;;;;41.85;6.75;;;9.70;99.90;;;;;;4951749;28;90567;-74
2023/12/12 02:06:04;;;;;;;32.55;5.45;;;9.60;99.90;;;;;;4970060;28;87586;-75
2023/12/12 02:08:30;;;;;;;31.83;5.22;;;9.70;99.90;;;;;;4968242;28;87859;-74
2023/12/12 02:10:56;;;;;;;27.23;4.78;;;9.60;99.90;;;;;;4968458;28;89023;-75
2023/12/12 02:13:21;;;;;;;34.13;5.18;;;9.70;99.90;;;;;;4951554;28;91956;-75
2023/12/12 02:15:47;;;;;;;29.02;5.32;;;9.70;99.90;;;;;;4969450;28;87989;-75
2023/12/12 02:18:16;;;;;;;37.20;5.03;;;9.70;99.90;;;;;;4957412;28;90537;-75
2023/12/12 02:20:43;;;;;;;42.17;5.43;;;9.80;99.90;;;;;;4968078;28;88435;-75
2023/12/12 02:23:09;;;;;;;33.67;4.43;;;9.80;99.90;;;;;;4951716;28;91285;-75
2023/12/12 02:25:36;;;;;;;40.13;5.35;;;9.80;99.90;;;;;;4969158;28;87376;-75
2023/12/12 02:28:02;;;;;;;27.77;4.45;;;9.90;99.90;;;;;;4951711;28;90969;-74
2023/12/12 02:30:29;;;;;;;34.70;4.95;;;9.90;99.90;;;;;;4950946;28;91213;-75
2023/12/12 02:32:54;;;;;;;21.13;3.90;;;10.00;99.90;;;;;;4951256;28;89989;-74
2023/12/12 02:35:20;;;;;;;37.33;5.00;;;10.00;99.90;;;;;;4967578;28;89274;-75
2023/12/12 02:37:46;;;;;;;33.30;4.70;;;10.00;99.90;;;;;;4968804;28;87990;-75
2023/12/12 02:40:12;;;;;;;30.75;4.65;;;10.00;99.90;;;;;;4950518;28;91609;-75
2023/12/12 02:42:43;;;;;;;29.67;4.47;;;10.00;99.90;;;;;;4950862;28;90485;-75
2023/12/12 02:45:09;;;;;;;44.42;4.20;;;10.10;99.90;;;;;;4951982;28;87703;-75
2023/12/12 02:47:34;;;;;;;35.58;4.75;;;10.10;99.90;;;;;;4950903;28;90124;-75
2023/12/12 02:50:00;;;;;;;23.65;3.83;;;10.10;99.90;;;;;;4968465;28;87692;-75
2023/12/12 02:52:26;;;;;;;27.85;4.55;;;10.20;99.90;;;;;;4950026;28;91063;-75
2023/12/12 02:54:51;;;;;;;35.75;4.93;;;10.30;99.90;;;;;;4950840;28;87164;-75
2023/12/12 02:57:17;;;;;;;32.40;3.78;;;10.40;99.90;;;;;;4967854;28;88082;-75
2023/12/12 02:59:43;;;;;;;35.22;4.82;;;10.50;99.90;;;;;;4949217;28;92826;-75
2023/12/12 03:02:08;;;;;;;30.33;4.90;;;10.50;99.90;;;;;;4952236;28;92086;-75
2023/12/12 03:04:34;;;;;;;26.75;4.32;;;10.40;99.90;;;;;;4954913;28;88042;-75
2023/12/12 03:07:00;;;;;;;27.60;4.55;;;10.40;99.90;;;;;;4954277;28;90666;-75
2023/12/12 03:09:25;;;;;;;23.70;5.50;;;10.40;99.90;;;;;;4954470;28;91625;-75
2023/12/12 03:11:53;;;;;;;21.90;3.47;;;10.40;99.90;;;;;;4972206;28;87657;-75
2023/12/12 03:14:22;;;;;;;24.42;3.60;;;10.40;99.90;;;;;;4953126;28;87565;-75
2023/12/12 03:16:48;;;;;;;29.60;3.15;;;10.50;99.90;;;;;;4971128;28;86645;-75
2023/12/12 03:19:14;;;;;;;31.10;5.82;;;10.50;99.90;;;;;;4954546;28;90153;-76
2023/12/12 03:21:39;;;;;;;28.90;4.28;;;10.50;99.90;;;;;;4969662;28;87639;-75
2023/12/12 03:24:05;;;;;;;39.15;4.63;;;10.50;99.90;;;;;;4970579;28;88356;-75
2023/12/12 03:26:31;;;;;;;39.90;5.88;;;10.50;99.90;;;;;;4952132;28;90437;-75
2023/12/12 03:28:57;;;;;;;34.38;5.93;;;10.50;99.90;;;;;;4971200;28;88610;-75
2023/12/12 03:31:23;;;;;;;28.00;4.05;;;10.40;99.90;;;;;;4969961;28;88404;-75
2023/12/12 03:33:49;;;;;;;31.00;4.45;;;10.50;99.90;;;;;;4953959;28;87604;-75
2023/12/12 03:36:14;;;;;;;28.02;3.92;;;10.50;99.90;;;;;;4954392;28;90204;-74
2023/12/12 03:38:40;;;;;;;24.80;3.90;;;10.40;99.90;;;;;;4954117;28;91803;-75
2023/12/12 03:41:06;;;;;;;27.73;3.67;;;10.50;99.90;;;;;;4971677;28;87456;-75
2023/12/12 03:43:31;;;;;;;25.60;4.05;;;10.50;99.90;;;;;;4970577;28;87143;-75
2023/12/12 03:45:57;;;;;;;27.42;3.92;;;10.50;99.90;;;;;;4952830;28;89486;-75
2023/12/12 03:48:22;;;;;;;24.25;4.10;;;10.50;99.90;;;;;;4971605;28;89083;-75
2023/12/12 03:50:49;;;;;;;29.27;5.57;;;10.50;99.90;;;;;;4970872;28;88178;-75
2023/12/12 03:53:15;;;;;;;28.45;5.00;;;10.60;99.90;;;;;;4953212;28;87279;-75
2023/12/12 03:55:41;;;;;;;23.73;3.90;;;10.60;99.90;;;;;;4952900;28;90442;-75
2023/12/12 03:58:07;;;;;;;27.48;4.55;;;10.60;99.90;;;;;;4970988;28;88168;-76
2023/12/12 04:00:32;;;;;;;28.08;4.45;;;10.60;99.90;;;;;;4953720;28;91258;-75
2023/12/12 04:02:58;;;;;;;35.03;4.60;;;10.70;99.90;;;;;;4971489;28;87545;-75
2023/12/12 04:05:24;;;;;;;30.98;4.57;;;10.70;99.90;;;;;;4953037;28;90466;-74
2023/12/12 04:07:49;;;;;;;23.23;4.03;;;10.70;99.90;;;;;;4952099;28;91485;-75
2023/12/12 04:10:15;;;;;;;28.70;4.18;;;10.80;99.90;;;;;;4952430;28;90724;-76
2023/12/12 04:12:41;;;;;;;32.78;4.18;;;10.80;99.90;;;;;;4951325;28;88784;-75
2023/12/12 04:15:07;;;;;;;35.58;4.22;;;10.90;99.90;;;;;;4952633;28;90243;-75
2023/12/12 04:17:33;;;;;;;30.30;4.82;;;10.80;99.90;;;;;;4952707;28;90829;-75
2023/12/12 04:19:58;;;;;;;34.85;3.88;;;10.90;99.90;;;;;;4969443;28;87584;-75
2023/12/12 04:22:24;;;;;;;34.00;4.63;;;10.90;99.90;;;;;;4969271;28;87308;-75
2023/12/12 04:24:50;;;;;;;23.80;4.20;;;10.90;99.90;;;;;;4951237;28;90502;-75
2023/12/12 04:27:15;;;;;;;32.88;3.88;;;10.90;99.90;;;;;;4951631;28;91985;-75
2023/12/12 04:29:41;;;;;;;21.40;3.67;;;10.80;99.90;;;;;;4951701;28;90896;-74
2023/12/12 04:32:07;;;;;;;27.83;3.58;;;10.80;99.90;;;;;;4969303;28;87272;-75
2023/12/12 04:34:33;;;;;;;23.35;4.07;;;10.80;99.90;;;;;;4953176;28;90112;-75
2023/12/12 04:36:59;;;;;;;27.10;3.65;;;10.90;99.90;;;;;;4952138;28;91106;-75
2023/12/12 04:39:27;;;;;;;37.60;5.47;;;10.90;99.90;;;;;;4953222;28;92082;-75
2023/12/12 04:41:53;;;;;;;27.88;3.70;;;10.90;99.90;;;;;;4970673;28;88007;-75
2023/12/12 04:44:18;;;;;;;32.30;4.43;;;10.90;99.90;;;;;;4953721;28;90677;-75
2023/12/12 04:46:44;;;;;;;29.50;4.13;;;10.90;99.90;;;;;;4955132;28;91591;-75
2023/12/12 04:49:10;;;;;;;36.53;4.78;;;10.80;99.90;;;;;;4953939;28;91767;-75
2023/12/12 04:51:35;;;;;;;30.15;4.25;;;10.80;99.90;;;;;;4956763;28;87686;-75
2023/12/12 04:54:01;;;;;;;27.05;5.50;;;10.80;99.90;;;;;;4975206;28;86785;-75
2023/12/12 04:56:27;;;;;;;32.63;3.92;;;10.80;99.90;;;;;;4955920;28;91539;-75
2023/12/12 04:58:52;;;;;;;29.67;4.63;;;10.80;99.90;;;;;;4972371;28;88074;-75
2023/12/12 05:01:18;;;;;;;26.73;3.85;;;10.90;99.90;;;;;;4955197;28;88369;-74
2023/12/12 05:03:44;;;;;;;34.08;4.53;;;10.90;99.90;;;;;;4955570;28;89317;-75
2023/12/12 05:06:10;;;;;;;45.25;4.95;;;10.80;99.90;;;;;;4954765;28;91888;-75
2023/12/12 05:08:36;;;;;;;31.58;4.22;;;10.80;99.90;;;;;;4951803;28;91500;-74
2023/12/12 05:11:02;;;;;;;26.00;4.60;;;10.80;99.90;;;;;;4952558;28;88067;-75
2023/12/12 05:13:28;;;;;;;29.80;4.38;;;10.80;99.90;;;;;;4953055;28;88974;-75
2023/12/12 05:15:54;;;;;;;27.10;3.33;;;10.80;99.90;;;;;;4952060;28;91368;-75
2023/12/12 05:18:20;;;;;;;25.15;4.72;;;10.90;99.90;;;;;;4970378;28;88126;-75
2023/12/12 05:20:46;;;;;;;21.70;3.88;;;11.00;99.90;;;;;;4969467;28;87628;-75
2023/12/12 05:23:11;;;;;;;30.13;3.85;;;11.00;99.90;;;;;;4954288;28;90648;-75
2023/12/12 05:25:37;;;;;;;28.45;4.10;;;11.00;99.90;;;;;;4951445;28;92373;-75
2023/12/12 05:28:03;;;;;;;17.60;3.30;;;11.00;99.90;;;;;;4970920;28;88443;-75
2023/12/12 05:30:29;;;;;;;21.20;4.07;;;11.00;99.90;;;;;;4957697;28;87761;-75
2023/12/12 05:32:54;;;;;;;24.75;4.55;;;11.00;99.90;;;;;;4953357;28;90719;-75
2023/12/12 05:35:23;;;;;;;27.88;3.83;;;11.00;99.90;;;;;;4952630;28;90790;-75
2023/12/12 05:37:49;;;;;;;23.65;3.35;;;11.00;99.90;;;;;;4951549;28;91264;-75
2023/12/12 05:40:15;;;;;;;22.30;3.40;;;11.00;99.90;;;;;;4951392;28;87270;-74
2023/12/12 05:42:41;;;;;;;28.08;3.60;;;11.00;99.90;;;;;;4970215;28;86795;-75
2023/12/12 05:45:07;;;;;;;22.90;3.78;;;10.90;99.90;;;;;;4951916;28;91809;-74
2023/12/12 05:47:33;;;;;;;25.52;4.10;;;10.80;99.90;;;;;;4969315;28;87811;-75
2023/12/12 05:49:59;;;;;;;29.50;4.13;;;10.70;99.90;;;;;;4968510;28;88812;-74
2023/12/12 05:52:25;;;;;;;22.10;3.22;;;10.70;99.90;;;;;;4951216;28;89985;-75
2023/12/12 05:54:52;;;;;;;25.10;4.43;;;10.70;99.90;;;;;;4969638;28;87937;-75
2023/12/12 05:57:18;;;;;;;31.05;4.90;;;10.70;99.90;;;;;;4952452;28;91028;-75
2023/12/12 05:59:44;;;;;;;32.80;4.97;;;10.70;99.90;;;;;;4969409;28;87878;-74
2023/12/12 06:02:09;;;;;;;28.08;4.18;;;10.60;99.90;;;;;;4969036;28;88024;-75
2023/12/12 06:04:35;;;;;;;28.02;4.45;;;10.70;99.90;;;;;;4950988;28;91361;-74
2023/12/12 06:07:05;;;;;;;21.23;4.13;;;10.70;99.90;;;;;;4950028;28;90560;-74
2023/12/12 06:09:31;;;;;;;20.05;3.58;;;10.70;99.90;;;;;;4968459;28;87905;-74
2023/12/12 06:11:58;;;;;;;26.42;4.00;;;10.80;99.90;;;;;;4950403;28;89995;-74
2023/12/12 06:14:25;;;;;;;22.10;3.45;;;10.80;99.90;;;;;;4965768;28;92845;-75
2023/12/12 06:16:50;;;;;;;15.55;3.67;;;10.80;99.90;;;;;;4950002;28;92300;-75
2023/12/12 06:19:16;;;;;;;20.75;4.03;;;10.70;99.90;;;;;;4949928;28;87954;-75
2023/12/12 06:21:41;;;;;;;21.15;3.63;;;10.70;99.90;;;;;;4948749;28;90563;-74
2023/12/12 06:24:07;;;;;;;18.55;3.50;;;10.70;99.90;;;;;;4968119;28;87975;-75
2023/12/12 06:26:34;;;;;;;25.13;3.72;;;10.80;99.90;;;;;;4967306;28;88105;-75
2023/12/12 06:29:00;;;;;;;25.23;3.42;;;10.70;99.90;;;;;;4950600;28;87920;-74
2023/12/12 06:31:25;;;;;;;18.20;4.68;;;10.70;99.90;;;;;;4967423;28;87615;-75
2023/12/12 06:33:52;;;;;;;20.30;3.92;;;10.70;99.90;;;;;;4950836;28;91806;-75
2023/12/12 06:36:17;;;;;;;23.30;4.00;;;10.70;99.90;;;;;;4952807;28;91222;-75
2023/12/12 06:38:43;;;;;;;20.73;3.15;;;10.70;99.90;;;;;;4971923;28;88602;-75
2023/12/12 06:41:09;;;;;;;13.70;3.63;;;10.70;99.90;;;;;;4972279;28;88163;-75
2023/12/12 06:43:35;;;;;;;18.08;2.95;;;10.80;99.90;;;;;;4955255;28;91608;-75
2023/12/12 06:46:01;;;;;;;20.90;3.85;;;10.80;99.90;;;;;;4972167;28;87857;-74
2023/12/12 06:48:28;;;;;;;24.02;3.88;;;10.80;99.90;;;;;;4972020;28;87691;-75
2023/12/12 06:50:53;;;;;;;22.10;3.28;;;11.00;99.90;;;;;;4972390;28;88049;-74
2023/12/12 06:53:19;;;;;;;17.25;3.08;;;10.90;99.90;;;;;;4953756;28;91409;-75
2023/12/12 06:55:46;;;;;;;27.55;4.38;;;10.70;99.90;;;;;;4954461;28;90213;-75
2023/12/12 06:58:11;;;;;;;20.75;3.10;;;10.40;99.90;;;;;;4971681;28;87538;-74
2023/12/12 07:00:40;;;;;;;17.08;3.33;;;10.30;99.90;;;;;;4971529;28;87704;-75
2023/12/12 07:03:05;;;;;;;22.48;3.55;;;10.10;99.90;;;;;;4954945;28;92404;-74
2023/12/12 07:05:33;;;;;;;20.52;3.28;;;10.00;99.90;;;;;;4954430;28;92074;-74
2023/12/12 07:07:59;;;;;;;23.45;3.25;;;9.90;99.90;;;;;;4954690;28;87985;-75
2023/12/12 07:10:24;;;;;;;23.92;3.13;;;9.80;99.90;;;;;;4954078;28;90627;-74
2023/12/12 07:12:50;;;;;;;21.35;3.95;;;9.80;99.90;;;;;;4953711;28;92283;-75
2023/12/12 07:15:16;;;;;;;13.50;3.17;;;9.70;99.90;;;;;;4972968;28;87790;-75
2023/12/12 07:17:41;;;;;;;14.95;3.35;;;9.70;99.90;;;;;;4953649;28;87424;-75
2023/12/12 07:20:11;;;;;;;16.58;2.72;;;9.70;99.90;;;;;;4953422;28;89796;-74
2023/12/12 07:22:38;;;;;;;23.83;3.95;;;9.70;99.90;;;;;;4952959;28;90731;-75
2023/12/12 07:25:04;;;;;;;16.25;2.63;;;9.70;99.90;;;;;;4971986;28;88922;-75
2023/12/12 07:27:30;;;;;;;17.88;3.30;;;9.60;99.90;;;;;;4971192;28;88879;-75
2023/12/12 07:29:55;;;;;;;19.10;2.95;;;9.60;99.90;;;;;;4971807;28;93220;-75
2023/12/12 07:32:21;;;;;;;16.48;3.22;;;9.60;99.90;;;;;;4971334;28;88158;-75
2023/12/12 07:34:47;;;;;;;20.02;2.72;;;9.60;99.90;;;;;;4954479;28;90045;-75
2023/12/12 07:37:12;;;;;;;12.77;2.47;;;9.60;99.90;;;;;;4954161;28;87670;-74
2023/12/12 07:39:38;;;;;;;16.33;2.42;;;9.70;99.90;;;;;;4955224;28;90041;-75
2023/12/12 07:42:04;;;;;;;13.65;2.78;;;9.60;99.90;;;;;;4956169;28;91471;-74
2023/12/12 07:44:30;;;;;;;16.80;2.65;;;9.70;99.90;;;;;;4954874;28;91135;-74
2023/12/12 07:46:55;;;;;;;17.00;2.45;;;9.70;99.90;;;;;;4955429;28;88132;-75
2023/12/12 07:49:21;;;;;;;13.40;4.75;;;9.60;99.90;;;;;;4972746;28;88203;-75
2023/12/12 07:51:47;;;;;;;18.73;3.03;;;9.70;99.90;;;;;;4953905;28;92564;-76
2023/12/12 07:54:12;;;;;;;13.43;2.33;;;9.70;99.90;;;;;;4956885;28;92744;-74
2023/12/12 07:56:38;;;;;;;12.88;2.72;;;9.70;99.90;;;;;;4955892;28;87639;-75
2023/12/12 07:59:04;;;;;;;17.77;3.78;;;9.70;99.90;;;;;;4954162;28;91418;-74
2023/12/12 08:01:29;;;;;;;12.55;2.70;;;9.70;99.90;;;;;;4955716;28;90035;-75
2023/12/12 08:03:55;;;;;;;12.90;2.83;;;9.70;99.90;;;;;;4955913;28;91777;-75
2023/12/12 08:06:21;;;;;;;20.83;4.43;;;9.70;99.90;;;;;;4958319;28;87443;-80
2023/12/12 08:08:47;;;;;;;15.15;2.30;;;9.70;99.90;;;;;;4959078;28;90203;-78
2023/12/12 08:11:13;;;;;;;14.93;2.72;;;9.70;99.90;;;;;;4959105;28;91317;-75
2023/12/12 08:13:39;;;;;;;14.50;2.75;;;9.70;99.90;;;;;;4960078;28;91334;-75
2023/12/12 08:16:05;;;;;;;8.82;2.30;;;9.70;99.90;;;;;;4960544;28;88886;-75
2023/12/12 08:18:31;;;;;;;14.40;2.25;;;9.80;99.90;;;;;;4958235;28;89475;-77
2023/12/12 08:20:57;;;;;;;18.45;2.53;;;9.80;99.90;;;;;;4975936;28;88677;-75
2023/12/12 08:23:23;;;;;;;14.13;2.10;;;9.80;99.90;;;;;;4960046;28;92493;-75
2023/12/12 08:25:49;;;;;;;12.27;2.40;;;9.80;99.90;;;;;;4960559;28;87262;-76
2023/12/12 08:28:15;;;;;;;16.33;2.10;;;9.80;99.90;;;;;;4959886;28;89425;-75
2023/12/12 08:30:41;;;;;;;10.80;2.03;;;9.80;99.90;;;;;;4976298;28;88066;-75
2023/12/12 08:33:07;;;;;;;9.00;1.85;;;9.90;99.90;;;;;;4960382;28;91371;-75
2023/12/12 08:35:32;;;;;;;12.68;2.50;;;9.90;99.90;;;;;;4979446;28;87555;-77
2023/12/12 08:37:58;;;;;;;11.82;2.13;;;9.90;99.90;;;;;;4960866;28;90382;-76
2023/12/12 08:40:24;;;;;;;15.00;2.15;;;10.00;99.90;;;;;;4958983;28;92642;-76
2023/12/12 08:42:50;;;;;;;14.57;1.90;;;10.00;99.90;;;;;;4978072;28;88805;-76
2023/12/12 08:45:15;;;;;;;9.27;1.67;;;10.10;99.90;;;;;;4962796;28;87510;-76
2023/12/12 08:47:41;;;;;;;6.00;2.30;;;10.10;99.90;;;;;;4979804;28;87082;-76
2023/12/12 08:50:09;;;;;;;10.52;1.75;;;10.10;99.90;;;;;;4977467;28;88683;-76
2023/12/12 08:52:35;;;;;;;12.68;2.33;;;10.10;99.90;;;;;;4976597;28;88549;-80
2023/12/12 08:55:03;;;;;;;8.63;1.88;;;10.10;99.90;;;;;;4962851;28;87662;-76
2023/12/12 08:57:29;;;;;;;9.32;2.08;;;10.20;99.90;;;;;;4962149;28;90022;-76
2023/12/12 08:59:55;;;;;;;12.07;2.28;;;10.30;99.90;;;;;;4979941;28;87241;-77
2023/12/12 09:02:21;;;;;;;10.60;2.40;;;10.30;99.90;;;;;;4962219;28;91127;-78
2023/12/12 09:04:46;;;;;;;6.63;1.67;;;10.40;99.90;;;;;;4960086;28;88425;-76
2023/12/12 09:07:12;;;;;;;8.27;1.90;;;10.40;99.90;;;;;;4959908;28;90788;-76
2023/12/12 09:09:38;;;;;;;7.85;1.90;;;10.50;99.90;;;;;;4958016;28;91139;-76
2023/12/12 09:12:05;;;;;;;8.90;2.17;;;10.50;99.90;;;;;;4976099;28;87785;-76
2023/12/12 09:14:31;;;;;;;14.00;2.20;;;10.50;99.90;;;;;;4973943;28;87591;-75
2023/12/12 09:16:56;;;;;;;9.05;1.70;;;10.50;99.90;;;;;;4954816;28;89044;-75
2023/12/12 09:19:22;;;;;;;3.83;1.70;;;10.60;99.90;;;;;;4953750;28;91433;-76
2023/12/12 09:21:49;;;;;;;6.25;1.67;;;10.60;99.90;;;;;;4954695;28;90691;-76
2023/12/12 09:24:14;;;;;;;10.65;1.77;;;10.60;99.90;;;;;;4954616;28;87341;-75
2023/12/12 09:26:40;;;;;;;12.43;2.10;;;10.60;99.90;;;;;;4970479;28;94913;-76
2023/12/12 09:29:06;;;;;;;12.02;2.10;;;10.60;99.90;;;;;;4953496;28;92242;-75
2023/12/12 09:31:33;;;;;;;17.55;2.13;;;10.60;99.90;;;;;;4951933;28;92108;-75
2023/12/12 09:33:59;;;;;;;4.10;1.45;;;10.70;99.90;;;;;;4951998;28;87959;-75
2023/12/12 09:36:24;;;;;;;6.68;1.45;;;10.70;99.90;;;;;;4953254;28;89219;-76
2023/12/12 09:38:50;;;;;;;7.30;1.10;;;10.80;99.90;;;;;;4969668;28;88702;-76
2023/12/12 09:41:23;;;;;;;6.75;1.13;;;10.80;99.90;;;;;;4969682;28;87616;-76
2023/12/12 09:43:50;;;;;;;7.67;1.73;;;10.90;99.90;;;;;;4953512;28;87515;-76
2023/12/12 09:46:17;;;;;;;6.40;1.25;;;10.90;99.90;;;;;;4952642;28;90461;-76
2023/12/12 09:48:45;;;;;;;11.50;2.60;;;10.90;99.90;;;;;;4952116;28;91590;-76
2023/12/12 09:51:14;;;;;;;7.28;1.20;;;11.00;99.90;;;;;;4953338;28;90678;-76
2023/12/12 09:53:46;;;;;;;7.82;1.85;;;11.00;99.90;;;;;;4969115;28;88203;-76
2023/12/12 09:56:15;;;;;;;8.77;1.50;;;11.00;99.90;;;;;;4969479;28;87789;-76
2023/12/12 09:58:40;;;;;;;7.57;1.95;;;11.10;99.90;;;;;;4968704;28;88184;-76
2023/12/12 10:01:08;;;;;;;11.48;2.40;;;11.10;99.90;;;;;;4952311;28;91225;-76
2023/12/12 10:03:35;;;;;;;6.32;1.48;;;11.10;99.90;;;;;;4969032;28;88098;-75
2023/12/12 10:06:06;;;;;;;8.23;2.15;;;11.10;99.90;;;;;;4952053;28;90960;-76
2023/12/12 10:08:31;;;;;;;7.25;1.75;;;11.10;99.90;;;;;;4969066;28;88747;-76
2023/12/12 10:10:57;;;;;;;6.28;1.80;;;11.20;99.90;;;;;;4951506;28;91025;-76
2023/12/12 10:13:23;;;;;;;8.45;1.90;;;11.20;99.90;;;;;;4952857;28;87503;-75
2023/12/12 10:15:48;;;;;;;7.43;1.70;;;11.20;99.90;;;;;;4952537;28;90792;-76
2023/12/12 10:18:14;;;;;;;7.13;1.55;;;11.20;99.90;;;;;;4953231;28;92549;-76
2023/12/12 10:20:40;;;;;;;9.70;1.73;;;11.20;99.90;;;;;;4952025;28;91994;-76
2023/12/12 10:23:06;;;;;;;6.97;1.60;;;11.30;99.90;;;;;;4952034;28;87710;-76
2023/12/12 10:25:34;;;;;;;5.25;1.50;;;11.30;99.90;;;;;;4952435;28;91124;-76
2023/12/12 10:28:00;;;;;;;4.80;1.60;;;11.30;99.90;;;;;;4952103;28;91508;-76
2023/12/12 10:30:26;;;;;;;8.68;1.60;;;11.30;99.90;;;;;;4968728;28;88375;-75
2023/12/12 10:32:54;;;;;;;7.13;1.60;;;11.30;99.90;;;;;;4952656;28;87602;-76
2023/12/12 10:35:21;;;;;;;7.40;1.80;;;11.40;99.90;;;;;;4968414;28;90524;-76
2023/12/12 10:37:51;;;;;;;6.32;1.48;;;11.40;99.90;;;;;;4967713;28;90571;-77
2023/12/12 10:40:23;;;;;;;3.97;1.65;;;11.40;99.90;;;;;;4951202;28;91210;-77
2023/12/12 10:42:49;;;;;;;5.85;1.85;;;11.40;99.90;;;;;;4949928;28;88949;-76
2023/12/12 10:45:16;;;;;;;10.00;1.77;;;11.40;99.90;;;;;;4951529;28;90001;-77
2023/12/12 10:47:50;;;;;;;5.43;1.33;;;11.40;99.90;;;;;;4968907;28;87601;-76
2023/12/12 10:50:17;;;;;;;4.30;1.50;;;11.50;99.90;;;;;;4970190;28;88455;-77
2023/12/12 10:52:45;;;;;;;6.07;1.63;;;11.50;99.90;;;;;;4953785;28;88155;-76
2023/12/12 10:55:13;;;;;;;3.47;1.50;;;11.50;99.90;;;;;;4957257;28;90495;-76
2023/12/12 10:57:42;;;;;;;3.00;1.23;;;11.50;99.90;;;;;;4956144;28;89734;-77
2023/12/12 11:00:13;;;;;;;6.63;1.55;;;11.50;99.90;;;;;;4975781;28;88368;-77
2023/12/12 11:02:43;;;;;;;6.90;1.88;;;11.50;99.90;;;;;;4974244;28;87495;-77
2023/12/12 11:05:10;;;;;;;5.72;1.80;;;11.50;99.90;;;;;;4954083;28;91017;-76
2023/12/12 11:07:37;;;;;;;2.30;1.30;;;11.50;99.90;;;;;;4954020;28;92185;-76
2023/12/12 11:10:09;;;;;;;4.47;1.50;;;11.60;99.90;;;;;;4953701;28;92358;-76
2023/12/12 11:12:52;;;;;;;2.50;1.33;;;11.50;99.90;;;;;;4957328;28;87885;-76
2023/12/12 11:15:19;;;;;;;4.30;1.25;;;11.50;99.90;;;;;;4953951;28;89041;-76
2023/12/12 11:17:47;;;;;;;4.82;1.10;;;11.50;99.90;;;;;;4951871;28;91242;-76
2023/12/12 11:20:17;;;;;;;3.63;1.38;;;11.60;99.90;;;;;;4968546;28;87203;-76
2023/12/12 11:22:50;;;;;;;5.80;1.45;;;11.60;99.90;;;;;;4953657;28;88563;-76
2023/12/12 11:25:20;;;;;;;4.75;1.30;;;11.60;99.90;;;;;;4955595;28;90321;-76
2023/12/12 11:27:50;;;;;;;2.50;1.17;;;11.70;99.90;;;;;;4954908;28;91369;-76
2023/12/12 11:30:18;;;;;;;3.63;1.80;;;11.70;99.90;;;;;;4955162;28;90097;-76
2023/12/12 11:32:45;;;;;;;4.13;1.70;;;11.80;99.90;;;;;;4954171;28;88819;-76
2023/12/12 11:35:31;;;;;;;6.03;2.30;;;11.90;99.90;;;;;;4969111;28;88950;-76
2023/12/12 11:38:00;;;;;;;7.32;1.75;;;11.90;99.90;;;;;;4954397;28;91143;-76
2023/12/12 11:40:27;;;;;;;3.90;1.77;;;12.00;99.90;;;;;;4954241;28;90166;-76
2023/12/12 11:42:55;;;;;;;2.70;1.60;;;12.10;99.90;;;;;;4954986;28;87998;-76
2023/12/12 11:45:34;;;;;;;4.97;1.88;;;12.10;99.90;;;;;;4954988;28;90093;-76
2023/12/12 11:48:05;;;;;;;5.13;1.60;;;12.10;99.90;;;;;;4971467;28;93124;-76
2023/12/12 11:50:31;;;;;;;3.50;1.92;;;12.10;99.90;;;;;;4953247;28;91094;-77
2023/12/12 11:52:57;;;;;;;3.95;2.05;;;12.20;99.90;;;;;;4954606;28;87427;-76
2023/12/12 11:55:32;;;;;;;6.38;1.95;;;12.20;99.90;;;;;;4971155;28;87489;-76
2023/12/12 11:58:07;;;;;;;6.35;2.03;;;12.20;99.90;;;;;;4971889;28;89646;-76
2023/12/12 12:00:38;;;;;;;2.65;1.75;;;12.30;99.90;;;;;;4954811;28;89332;-76
2023/12/12 12:03:05;;;;;;;5.15;2.10;;;12.30;99.90;;;;;;4972401;28;87667;-75
2023/12/12 12:05:31;;;;;;;3.60;1.98;;;12.40;99.90;;;;;;4948768;28;89804;-76
2023/12/12 12:07:57;;;;;;;3.50;1.77;;;12.40;99.90;;;;;;4951956;28;89353;-75
2023/12/12 12:10:24;;;;;;;5.53;1.75;;;12.50;99.90;;;;;;4971778;28;87749;-76
2023/12/12 12:12:59;;;;;;;2.47;1.75;;;12.50;99.90;;;;;;4950493;28;87648;-76
2023/12/12 12:15:26;;;;;;;3.13;1.17;;;12.50;99.90;;;;;;4975803;28;87549;-76
2023/12/12 12:17:52;;;;;;;4.88;1.55;;;12.50;99.90;;;;;;4957726;28;96161;-76
2023/12/12 12:20:19;;;;;;;3.00;1.65;;;12.50;99.90;;;;;;4955277;28;91486;-76
2023/12/12 12:22:45;;;;;;;3.22;1.50;;;12.50;99.90;;;;;;4954391;28;88653;-75
2023/12/12 12:25:11;;;;;;;2.47;1.30;;;12.50;99.90;;;;;;4954890;28;90373;-75
2023/12/12 12:27:53;;;;;;;2.28;1.23;;;12.50;99.90;;;;;;4972961;28;87998;-75
2023/12/12 12:30:20;;;;;;;1.20;0.90;;;12.50;99.90;;;;;;4955176;28;90013;-75
2023/12/12 12:33:01;;;;;;;3.42;1.15;;;12.50;99.90;;;;;;4954473;28;92692;-75
2023/12/12 12:35:31;;;;;;;8.40;1.20;;;12.50;99.90;;;;;;4955292;28;90498;-75
2023/12/12 12:37:57;;;;;;;4.82;1.95;;;12.50;99.90;;;;;;4954888;28;88688;-75
2023/12/12 12:40:38;;;;;;;3.45;0.90;;;12.50;99.90;;;;;;4954005;28;91274;-74